Time;durP1;ratioP1;P1;durP2;ratioP2;P2;SDS_P1;SDS_P2;PMS_P1;PMS_P2;Temp;Humidity;BMP_temperature;BMP_pressure;BME280_temperature;BME280_humidity;BME280_pressure;Samples;Min_cycle;Max_cycle;Signal;HPM_P1;HPM_P2
2022/06/09 00:02:09;;;;;;;5.90;2.35;;;;;;;;;;10283781;28;20049;-62
2022/06/09 00:07:10;;;;;;;3.42;2.10;;;;;;;;;;10283151;28;20144;-61
2022/06/09 00:12:09;;;;;;;2.63;1.80;;;;;;;;;;10283213;28;20080;-62
2022/06/09 00:17:07;;;;;;;3.28;2.00;;;;;;;;;;10283402;28;20076;-62
2022/06/09 00:22:05;;;;;;;5.45;2.17;;;;;;;;;;10282229;28;20056;-62
2022/06/09 00:27:05;;;;;;;4.95;2.08;;;;;;;;;;10282557;28;20091;-61
2022/06/09 00:32:04;;;;;;;4.40;1.60;;;;;;;;;;10281718;28;20055;-60
2022/06/09 00:37:03;;;;;;;7.15;2.38;;;;;;;;;;10282447;28;20076;-61
2022/06/09 00:42:01;;;;;;;1.70;1.60;;;;;;;;;;10282157;28;20037;-61
2022/06/09 00:47:02;;;;;;;4.53;2.60;;;;;;;;;;10282317;28;20080;-61
2022/06/09 00:52:01;;;;;;;8.18;2.40;;;;;;;;;;10281151;28;20041;-61
2022/06/09 00:57:03;;;;;;;6.57;2.65;;;;;;;;;;10281979;28;20468;-60
2022/06/09 01:02:06;;;;;;;17.35;4.38;;;;;;;;;;10281471;28;20076;-61
2022/06/09 01:07:06;;;;;;;16.65;4.25;;;;;;;;;;10279476;28;20048;-61
2022/06/09 01:12:19;;;;;;;12.15;4.28;;;;;;;;;;10280845;28;20076;-61
2022/06/09 01:17:21;;;;;;;15.40;3.45;;;;;;;;;;10280787;28;20095;-61
2022/06/09 01:22:34;;;;;;;5.90;2.38;;;;;;;;;;10280433;28;20068;-61
2022/06/09 01:27:40;;;;;;;9.98;3.00;;;;;;;;;;10268204;28;20454;-61
2022/06/09 01:32:42;;;;;;;9.13;3.35;;;;;;;;;;10280232;28;20059;-61
2022/06/09 01:37:42;;;;;;;7.22;3.17;;;;;;;;;;10279186;28;20073;-61
2022/06/09 01:42:41;;;;;;;6.20;3.08;;;;;;;;;;10280342;28;20087;-61
2022/06/09 01:47:43;;;;;;;4.75;2.80;;;;;;;;;;10279537;28;20048;-61
2022/06/09 01:52:43;;;;;;;6.35;2.92;;;;;;;;;;10279500;28;20045;-60
2022/06/09 01:57:42;;;;;;;7.95;3.72;;;;;;;;;;10279257;28;20333;-62
2022/06/09 02:02:43;;;;;;;4.75;2.95;;;;;;;;;;10279200;28;20068;-62
2022/06/09 02:07:42;;;;;;;6.35;2.85;;;;;;;;;;10278981;28;20056;-62
2022/06/09 02:12:41;;;;;;;5.68;3.50;;;;;;;;;;10279081;28;20048;-62
2022/06/09 02:17:44;;;;;;;5.05;2.75;;;;;;;;;;10278277;28;20076;-63
2022/06/09 02:22:42;;;;;;;3.15;2.85;;;;;;;;;;10278181;28;20102;-63
2022/06/09 02:27:41;;;;;;;3.13;2.75;;;;;;;;;;10278812;28;20458;-62
2022/06/09 02:32:39;;;;;;;7.68;5.90;;;;;;;;;;10277828;28;20052;-62
2022/06/09 02:37:39;;;;;;;6.88;3.28;;;;;;;;;;10277532;28;20079;-62
2022/06/09 02:42:37;;;;;;;5.95;3.85;;;;;;;;;;10275981;28;20052;-63
2022/06/09 02:47:36;;;;;;;4.18;2.55;;;;;;;;;;10277263;28;20048;-62
2022/06/09 02:52:34;;;;;;;7.03;2.55;;;;;;;;;;10277128;28;20056;-63
2022/06/09 02:57:34;;;;;;;6.13;2.95;;;;;;;;;;10277057;28;20080;-62
2022/06/09 03:02:32;;;;;;;3.38;2.90;;;;;;;;;;10276806;28;20040;-63
2022/06/09 03:07:31;;;;;;;6.45;3.10;;;;;;;;;;10276717;28;20079;-62
2022/06/09 03:12:29;;;;;;;8.00;3.25;;;;;;;;;;10276541;28;20087;-63
2022/06/09 03:17:29;;;;;;;6.72;2.97;;;;;;;;;;10276698;28;20130;-63
2022/06/09 03:22:27;;;;;;;8.25;3.13;;;;;;;;;;10275895;28;20446;-62
2022/06/09 03:27:25;;;;;;;5.90;2.97;;;;;;;;;;10274647;28;20040;-63
2022/06/09 03:32:24;;;;;;;7.32;2.65;;;;;;;;;;10275554;28;20502;-63
2022/06/09 03:37:24;;;;;;;4.28;2.95;;;;;;;;;;10275557;28;20088;-63
2022/06/09 03:42:22;;;;;;;3.72;2.92;;;;;;;;;;10274286;28;20053;-62
2022/06/09 03:47:22;;;;;;;4.13;2.25;;;;;;;;;;10275619;28;20045;-63
2022/06/09 03:52:20;;;;;;;3.78;2.53;;;;;;;;;;10274776;28;20064;-61
2022/06/09 03:57:20;;;;;;;4.68;2.88;;;;;;;;;;10275747;28;20450;-61
2022/06/09 04:02:19;;;;;;;6.35;3.20;;;;;;;;;;10275316;28;20048;-62
2022/06/09 04:07:17;;;;;;;10.65;3.53;;;;;;;;;;10273609;28;20045;-62
2022/06/09 04:12:15;;;;;;;7.85;4.53;;;;;;;;;;10275324;28;20041;-61
2022/06/09 04:17:15;;;;;;;17.48;8.75;;;;;;;;;;10275106;28;20088;-62
2022/06/09 04:22:13;;;;;;;13.13;7.18;;;;;;;;;;10272955;28;20053;-61
2022/06/09 04:27:12;;;;;;;13.10;7.00;;;;;;;;;;10294641;28;20325;-61
2022/06/09 04:32:11;;;;;;;17.15;5.50;;;;;;;;;;10315022;28;20033;-62
2022/06/09 04:37:11;;;;;;;4.47;2.67;;;;;;;;;;10314926;28;20084;-62
2022/06/09 04:42:10;;;;;;;3.55;2.97;;;;;;;;;;10318036;28;20068;-62
2022/06/09 04:47:08;;;;;;;3.05;2.75;;;;;;;;;;10322451;28;20068;-63
2022/06/09 04:52:06;;;;;;;7.00;2.70;;;;;;;;;;10313073;28;20045;-61
2022/06/09 04:57:12;;;;;;;8.10;3.88;;;;;;;;;;10310583;28;20451;-62
2022/06/09 05:02:11;;;;;;;15.73;4.43;;;;;;;;;;10289843;28;20099;-61
2022/06/09 05:07:09;;;;;;;14.00;5.78;;;;;;;;;;10276702;28;20077;-62
2022/06/09 05:12:07;;;;;;;14.15;5.88;;;;;;;;;;10294182;28;20072;-61
2022/06/09 05:17:07;;;;;;;11.18;4.47;;;;;;;;;;10295755;28;20088;-62
2022/06/09 05:22:06;;;;;;;7.57;4.13;;;;;;;;;;10299727;28;20076;-61
2022/06/09 05:27:05;;;;;;;11.15;4.70;;;;;;;;;;10298811;28;20041;-61
2022/06/09 05:32:03;;;;;;;13.05;3.90;;;;;;;;;;10300069;28;20065;-62
2022/06/09 05:37:04;;;;;;;16.45;3.90;;;;;;;;;;10297723;28;20075;-62
2022/06/09 05:47:21;;;;;;;5.20;2.83;;;;;;;;;;10313179;28;20072;-62
2022/06/09 05:52:22;;;;;;;5.57;2.20;;;;;;;;;;10317325;28;20061;-63
2022/06/09 05:57:22;;;;;;;6.47;2.80;;;;;;;;;;10315510;28;20521;-61
2022/06/09 06:02:21;;;;;;;7.22;2.97;;;;;;;;;;10309482;28;20312;-62
2022/06/09 06:07:21;;;;;;;4.85;2.78;;;;;;;;;;10312924;28;20139;-63
2022/06/09 06:12:20;;;;;;;6.05;2.58;;;;;;;;;;10314283;28;20068;-62
2022/06/09 06:17:19;;;;;;;4.03;2.72;;;;;;;;;;10314909;28;20079;-63
2022/06/09 06:22:17;;;;;;;6.50;2.80;;;;;;;;;;10316718;28;20095;-62
2022/06/09 06:27:17;;;;;;;6.10;3.20;;;;;;;;;;10313074;28;20079;-62
2022/06/09 06:32:35;;;;;;;7.00;3.42;;;;;;;;;;10314616;28;20080;-60
2022/06/09 06:37:34;;;;;;;3.35;2.63;;;;;;;;;;10315693;28;20076;-62
2022/06/09 06:42:33;;;;;;;9.07;6.00;;;;;;;;;;10318083;28;20187;-61
2022/06/09 06:47:32;;;;;;;5.82;3.55;;;;;;;;;;10317681;28;20052;-61
2022/06/09 06:52:35;;;;;;;5.20;2.72;;;;;;;;;;10317812;28;20044;-61
2022/06/09 06:57:34;;;;;;;8.65;2.78;;;;;;;;;;10317243;28;20179;-61
2022/06/09 07:02:33;;;;;;;7.00;4.70;;;;;;;;;;10317130;28;20051;-59
2022/06/09 07:07:51;;;;;;;3.33;2.50;;;;;;;;;;10270029;28;20543;-62
2022/06/09 07:12:51;;;;;;;14.10;3.20;;;;;;;;;;10270788;28;20080;-62
2022/06/09 07:17:49;;;;;;;6.13;4.70;;;;;;;;;;10270505;28;20090;-62
2022/06/09 07:22:48;;;;;;;9.85;3.10;;;;;;;;;;10275217;28;20474;-63
2022/06/09 07:27:48;;;;;;;6.25;2.75;;;;;;;;;;10316652;28;20049;-63
2022/06/09 07:32:48;;;;;;;4.13;2.55;;;;;;;;;;10316687;28;20053;-61
2022/06/09 07:37:46;;;;;;;4.68;2.80;;;;;;;;;;10316428;28;20072;-61
2022/06/09 07:42:44;;;;;;;8.20;2.28;;;;;;;;;;10316463;28;20082;-62
2022/06/09 07:47:43;;;;;;;2.75;2.53;;;;;;;;;;10316335;28;20044;-61
2022/06/09 07:52:43;;;;;;;4.45;2.60;;;;;;;;;;10314500;28;20079;-62
2022/06/09 07:57:42;;;;;;;2.65;2.45;;;;;;;;;;10316008;28;20524;-63
2022/06/09 08:02:40;;;;;;;3.95;2.85;;;;;;;;;;10315353;28;20249;-63
2022/06/09 08:07:38;;;;;;;5.18;2.95;;;;;;;;;;10314162;28;20044;-63
2022/06/09 08:12:38;;;;;;;5.40;2.40;;;;;;;;;;10316041;28;20048;-60
2022/06/09 08:17:38;;;;;;;5.05;2.20;;;;;;;;;;10321369;28;20041;-61
2022/06/09 08:22:40;;;;;;;4.55;2.28;;;;;;;;;;10323110;28;20095;-62
2022/06/09 08:27:40;;;;;;;4.55;2.17;;;;;;;;;;10323270;28;20053;-62
2022/06/09 08:32:39;;;;;;;3.83;3.10;;;;;;;;;;10321737;28;20056;-60
2022/06/09 08:37:37;;;;;;;2.97;2.10;;;;;;;;;;10323051;28;20075;-62
2022/06/09 08:42:41;;;;;;;3.22;2.28;;;;;;;;;;10321096;28;20056;-61
2022/06/09 08:47:41;;;;;;;3.45;2.83;;;;;;;;;;10322575;28;20040;-62
2022/06/09 08:52:43;;;;;;;8.50;2.67;;;;;;;;;;10320644;28;20047;-61
2022/06/09 08:57:43;;;;;;;6.88;2.25;;;;;;;;;;10322015;28;20072;-61
2022/06/09 09:02:44;;;;;;;6.05;2.30;;;;;;;;;;10321805;28;20040;-61
2022/06/09 09:07:45;;;;;;;5.55;2.50;;;;;;;;;;10321863;28;20071;-61
2022/06/09 09:12:45;;;;;;;4.18;2.22;;;;;;;;;;10321656;28;20146;-61
2022/06/09 09:17:49;;;;;;;6.32;2.33;;;;;;;;;;10321569;28;20060;-62
2022/06/09 09:22:51;;;;;;;9.07;2.30;;;;;;;;;;10320652;28;20089;-61
2022/06/09 09:27:53;;;;;;;3.40;1.90;;;;;;;;;;10320710;28;20060;-61
2022/06/09 09:32:54;;;;;;;7.32;2.10;;;;;;;;;;10321111;28;20044;-62
2022/06/09 09:37:54;;;;;;;4.85;1.98;;;;;;;;;;10320814;28;20036;-62
2022/06/09 09:42:55;;;;;;;5.25;1.88;;;;;;;;;;10321337;28;20072;-62
2022/06/09 09:47:57;;;;;;;2.67;2.30;;;;;;;;;;10320555;28;20048;-63
2022/06/09 09:53:01;;;;;;;2.80;2.15;;;;;;;;;;10318424;28;20048;-62
2022/06/09 09:57:59;;;;;;;;;;;;;;;;;;10320594;28;20048;-62
2022/06/09 10:08:45;;;;;;;4.78;2.22;;;;;;;;;;10318128;28;20497;-62
2022/06/09 10:14:01;;;;;;;6.00;2.38;;;;;;;;;;10319425;28;20049;-62
2022/06/09 10:19:21;;;;;;;3.63;1.80;;;;;;;;;;10317899;28;20139;-63
2022/06/09 10:24:34;;;;;;;2.80;1.85;;;;;;;;;;10318504;28;20060;-62
2022/06/09 10:29:46;;;;;;;4.80;2.95;;;;;;;;;;10317972;28;20045;-62
2022/06/09 10:34:48;;;;;;;3.10;2.72;;;;;;;;;;10317580;28;20067;-62
2022/06/09 10:39:48;;;;;;;3.40;2.00;;;;;;;;;;10316699;28;20079;-61
2022/06/09 10:44:49;;;;;;;7.90;1.98;;;;;;;;;;10296643;28;20080;-62
2022/06/09 10:55:18;;;;;;;3.28;2.00;;;;;;;;;;10277353;28;20049;-62
2022/06/09 11:00:18;;;;;;;5.35;2.67;;;;;;;;;;10287309;28;20075;-63
2022/06/09 11:05:20;;;;;;;2.28;2.08;;;;;;;;;;10276395;28;20049;-62
2022/06/09 11:10:24;;;;;;;3.58;2.10;;;;;;;;;;10275770;28;20045;-62
2022/06/09 11:15:27;;;;;;;5.38;2.20;;;;;;;;;;10275999;28;20067;-62
2022/06/09 11:20:32;;;;;;;2.58;2.38;;;;;;;;;;10275495;28;20087;-62
2022/06/09 11:25:38;;;;;;;2.80;2.42;;;;;;;;;;10274417;28;20524;-62
2022/06/09 11:30:52;;;;;;;7.82;2.78;;;;;;;;;;10275415;28;20056;-62
2022/06/09 11:35:56;;;;;;;5.72;2.33;;;;;;;;;;10274680;28;20055;-62
2022/06/09 11:40:58;;;;;;;4.13;2.67;;;;;;;;;;10275115;28;20092;-62
2022/06/09 11:45:59;;;;;;;8.93;3.45;;;;;;;;;;10275634;28;20052;-62
2022/06/09 11:51:00;;;;;;;7.00;2.40;;;;;;;;;;10278426;28;20045;-62
2022/06/09 11:56:13;;;;;;;6.05;2.40;;;;;;;;;;10283041;28;20091;-62
2022/06/09 12:01:20;;;;;;;3.13;2.50;;;;;;;;;;10283323;28;20080;-62
2022/06/09 12:06:23;;;;;;;3.63;3.00;;;;;;;;;;10283418;28;20045;-62
2022/06/09 12:11:23;;;;;;;4.93;3.10;;;;;;;;;;10301533;28;20049;-62
2022/06/09 12:16:24;;;;;;;4.03;2.55;;;;;;;;;;10288447;28;20098;-62
2022/06/09 12:21:29;;;;;;;4.63;2.13;;;;;;;;;;10282538;28;20180;-62
2022/06/09 12:26:29;;;;;;;3.40;2.58;;;;;;;;;;10283101;28;20049;-62
2022/06/09 12:31:30;;;;;;;9.20;3.28;;;;;;;;;;10282768;28;20056;-62
2022/06/09 12:36:36;;;;;;;2.60;2.10;;;;;;;;;;10282034;28;20049;-62
2022/06/09 12:41:37;;;;;;;4.53;2.83;;;;;;;;;;10281794;28;20072;-62
2022/06/09 12:46:40;;;;;;;4.20;2.67;;;;;;;;;;10281697;28;20048;-61
2022/06/09 12:51:40;;;;;;;8.57;3.38;;;;;;;;;;10281367;28;20049;-62
2022/06/09 12:56:40;;;;;;;5.57;3.35;;;;;;;;;;10281630;28;20468;-62
2022/06/09 13:01:49;;;;;;;5.10;2.25;;;;;;;;;;10279936;28;20073;-61
2022/06/09 13:06:50;;;;;;;5.60;2.60;;;;;;;;;;10281027;28;20041;-61
2022/06/09 13:17:08;;;;;;;2.08;1.83;;;;;;;;;;10280607;28;20045;-62
2022/06/09 13:22:09;;;;;;;5.28;3.08;;;;;;;;;;10279431;28;20512;-62
2022/06/09 13:27:10;;;;;;;3.38;1.67;;;;;;;;;;10280414;28;20087;-62
2022/06/09 13:32:10;;;;;;;4.63;2.50;;;;;;;;;;10280245;28;20041;-62
2022/06/09 13:37:15;;;;;;;5.70;4.38;;;;;;;;;;10280509;28;20508;-62
2022/06/09 13:42:22;;;;;;;7.10;1.90;;;;;;;;;;10279532;28;20154;-62
2022/06/09 13:47:21;;;;;;;4.20;2.70;;;;;;;;;;10279909;28;20056;-62
2022/06/09 13:52:27;;;;;;;9.57;4.22;;;;;;;;;;10279402;28;20072;-61
2022/06/09 13:57:27;;;;;;;6.32;2.83;;;;;;;;;;10278354;28;20104;-62
2022/06/09 14:02:28;;;;;;;10.13;3.42;;;;;;;;;;10277566;28;20080;-62
2022/06/09 14:07:28;;;;;;;16.25;4.82;;;;;;;;;;10278810;28;20049;-62
2022/06/09 14:12:26;;;;;;;8.60;2.45;;;;;;;;;;10278037;28;20045;-62
2022/06/09 14:17:28;;;;;;;7.13;3.22;;;;;;;;;;10278764;28;20052;-61
2022/06/09 14:22:27;;;;;;;6.25;1.95;;;;;;;;;;10277369;28;20077;-62
2022/06/09 14:27:26;;;;;;;4.28;3.08;;;;;;;;;;10276780;28;20498;-62
2022/06/09 14:32:24;;;;;;;6.20;2.83;;;;;;;;;;10277918;28;20049;-62
2022/06/09 14:37:23;;;;;;;12.05;3.10;;;;;;;;;;10277771;28;20083;-62
2022/06/09 14:42:23;;;;;;;3.90;3.03;;;;;;;;;;10277340;28;20080;-61
2022/06/09 14:47:22;;;;;;;10.32;4.78;;;;;;;;;;10290836;28;20091;-61
2022/06/09 14:52:20;;;;;;;3.47;2.17;;;;;;;;;;10277307;28;20414;-61
2022/06/09 14:57:19;;;;;;;3.97;3.33;;;;;;;;;;10277552;28;20049;-62
2022/06/09 15:02:20;;;;;;;4.63;2.88;;;;;;;;;;10276657;28;20099;-63
2022/06/09 15:07:20;;;;;;;8.82;3.85;;;;;;;;;;10276802;28;20041;-63
2022/06/09 15:12:19;;;;;;;5.68;2.50;;;;;;;;;;10276532;28;20041;-63
2022/06/09 15:17:19;;;;;;;4.68;2.72;;;;;;;;;;10276097;28;20044;-63
2022/06/09 15:22:18;;;;;;;6.00;3.38;;;;;;;;;;10275087;28;20083;-63
2022/06/09 15:27:17;;;;;;;6.88;2.65;;;;;;;;;;10275428;28;20080;-62
2022/06/09 15:32:15;;;;;;;8.38;2.38;;;;;;;;;;10275727;28;20060;-62
2022/06/09 15:37:15;;;;;;;6.88;4.07;;;;;;;;;;10275843;28;20041;-63
2022/06/09 15:42:13;;;;;;;7.22;3.60;;;;;;;;;;10293633;28;20077;-62
2022/06/09 15:47:12;;;;;;;13.10;3.00;;;;;;;;;;10297363;28;20091;-62
2022/06/09 15:52:11;;;;;;;8.45;4.15;;;;;;;;;;10308978;28;20076;-62
2022/06/09 15:57:10;;;;;;;11.40;3.97;;;;;;;;;;10313450;28;20068;-62
2022/06/09 16:02:13;;;;;;;4.60;3.80;;;;;;;;;;10312939;28;20521;-62
2022/06/09 16:07:13;;;;;;;3.70;3.35;;;;;;;;;;10285551;28;20080;-63
2022/06/09 16:12:13;;;;;;;4.43;2.17;;;;;;;;;;10266743;28;20073;-62
2022/06/09 16:17:11;;;;;;;7.32;2.78;;;;;;;;;;10273798;28;20068;-63
2022/06/09 16:22:10;;;;;;;7.72;2.53;;;;;;;;;;10282403;28;20510;-62
2022/06/09 16:27:08;;;;;;;10.98;3.17;;;;;;;;;;10273465;28;20059;-63
2022/06/09 16:32:08;;;;;;;7.35;3.38;;;;;;;;;;10272694;28;20076;-62
2022/06/09 16:37:07;;;;;;;7.75;6.32;;;;;;;;;;10277631;28;20502;-63
2022/06/09 16:42:06;;;;;;;6.78;3.20;;;;;;;;;;10282384;28;20092;-62
2022/06/09 16:47:05;;;;;;;9.00;3.65;;;;;;;;;;10282222;28;20498;-62
2022/06/09 16:52:05;;;;;;;4.10;2.60;;;;;;;;;;10281489;28;20044;-63
2022/06/09 16:57:04;;;;;;;6.03;3.50;;;;;;;;;;10281863;28;20056;-63
2022/06/09 17:02:03;;;;;;;3.17;2.78;;;;;;;;;;10281226;28;20077;-63
2022/06/09 17:07:02;;;;;;;4.55;2.78;;;;;;;;;;10281632;28;20092;-62
2022/06/09 17:12:02;;;;;;;4.85;2.30;;;;;;;;;;10281127;28;20049;-61
2022/06/09 17:17:00;;;;;;;6.60;2.95;;;;;;;;;;10280419;28;20045;-61
2022/06/09 17:21:59;;;;;;;8.63;3.65;;;;;;;;;;10280033;28;20093;-62
2022/06/09 17:26:58;;;;;;;2.58;1.90;;;;;;;;;;10280490;28;20041;-61
2022/06/09 17:31:57;;;;;;;6.55;2.20;;;;;;;;;;10280517;28;20065;-61
2022/06/09 17:36:56;;;;;;;6.18;2.40;;;;;;;;;;10279333;28;20049;-61
2022/06/09 17:41:54;;;;;;;4.43;2.35;;;;;;;;;;10279662;28;20088;-62
2022/06/09 17:46:52;;;;;;;12.27;3.03;;;;;;;;;;10279345;28;20037;-62
2022/06/09 17:51:52;;;;;;;10.02;2.58;;;;;;;;;;10278527;28;20077;-61
2022/06/09 17:56:50;;;;;;;36.90;21.58;;;;;;;;;;10278977;28;20048;-61
2022/06/09 18:01:49;;;;;;;9.32;3.72;;;;;;;;;;10278935;28;20076;-61
2022/06/09 18:06:47;;;;;;;5.30;2.85;;;;;;;;;;10278950;28;20348;-61
2022/06/09 18:11:47;;;;;;;10.05;3.85;;;;;;;;;;10278639;28;20080;-62
2022/06/09 18:16:45;;;;;;;8.15;3.42;;;;;;;;;;10278196;28;20426;-61
2022/06/09 18:21:44;;;;;;;10.18;2.67;;;;;;;;;;10277593;28;20091;-62
2022/06/09 18:26:45;;;;;;;7.82;2.20;;;;;;;;;;10277969;28;20060;-61
2022/06/09 18:31:44;;;;;;;7.15;2.33;;;;;;;;;;10278200;28;20060;-61
2022/06/09 18:36:43;;;;;;;3.30;2.55;;;;;;;;;;10277591;28;20052;-61
2022/06/09 18:41:42;;;;;;;5.45;2.65;;;;;;;;;;10291786;28;20073;-62
2022/06/09 18:46:40;;;;;;;7.53;1.92;;;;;;;;;;10277412;28;20075;-61
2022/06/09 18:51:41;;;;;;;5.63;2.85;;;;;;;;;;10277343;28;20048;-62
2022/06/09 18:56:39;;;;;;;3.88;2.33;;;;;;;;;;10276813;28;20053;-61
2022/06/09 19:01:37;;;;;;;3.58;2.42;;;;;;;;;;10286861;28;20103;-61
2022/06/09 19:06:36;;;;;;;6.60;2.40;;;;;;;;;;10276488;28;20650;-61
2022/06/09 19:11:38;;;;;;;4.18;2.92;;;;;;;;;;10276354;28;20056;-61
2022/06/09 19:16:37;;;;;;;7.25;2.58;;;;;;;;;;10275839;28;20083;-62
2022/06/09 19:21:36;;;;;;;3.63;3.08;;;;;;;;;;10275438;28;20091;-61
2022/06/09 19:26:34;;;;;;;4.97;2.83;;;;;;;;;;10276089;28;20049;-61
2022/06/09 19:31:34;;;;;;;8.10;2.85;;;;;;;;;;10275470;28;20073;-60
2022/06/09 19:36:34;;;;;;;6.57;2.47;;;;;;;;;;10275891;28;20052;-61
2022/06/09 19:41:32;;;;;;;5.38;2.70;;;;;;;;;;10275678;28;20045;-62
2022/06/09 19:46:31;;;;;;;6.90;2.92;;;;;;;;;;10276018;28;20156;-61
2022/06/09 19:51:32;;;;;;;5.75;2.65;;;;;;;;;;10276113;28;20061;-61
2022/06/09 19:56:31;;;;;;;4.88;2.20;;;;;;;;;;10275207;28;20060;-62
2022/06/09 20:01:30;;;;;;;7.40;2.38;;;;;;;;;;10275080;28;20047;-62
2022/06/09 20:06:30;;;;;;;4.32;2.53;;;;;;;;;;10272786;28;20072;-61
2022/06/09 20:11:31;;;;;;;2.85;2.30;;;;;;;;;;10312285;28;20047;-60
2022/06/09 20:16:29;;;;;;;4.50;2.47;;;;;;;;;;10306188;28;20426;-62
2022/06/09 20:21:28;;;;;;;4.93;2.47;;;;;;;;;;10298916;28;20087;-61
2022/06/09 20:26:26;;;;;;;5.65;2.60;;;;;;;;;;10287897;28;20095;-61
2022/06/09 20:31:28;;;;;;;4.13;2.47;;;;;;;;;;10281124;28;20486;-59
2022/06/09 20:36:28;;;;;;;2.55;2.30;;;;;;;;;;10290903;28;20094;-62
2022/06/09 20:41:26;;;;;;;5.40;2.67;;;;;;;;;;10301744;28;20052;-60
2022/06/09 20:46:27;;;;;;;5.72;2.80;;;;;;;;;;10298627;28;20068;-62
2022/06/09 20:51:26;;;;;;;4.57;2.45;;;;;;;;;;10304632;28;20064;-62
2022/06/09 20:56:24;;;;;;;5.35;3.08;;;;;;;;;;10290356;28;20041;-62
2022/06/09 21:01:24;;;;;;;3.63;3.10;;;;;;;;;;10281178;28;20052;-61
2022/06/09 21:06:24;;;;;;;3.33;2.47;;;;;;;;;;10280877;28;20385;-61
2022/06/09 21:21:55;;;;;;;3.42;3.03;;;;;;;;;;10279620;28;20053;-61
2022/06/09 21:26:53;;;;;;;9.80;3.17;;;;;;;;;;10278763;28;20080;-61
2022/06/09 21:31:52;;;;;;;5.45;3.90;;;;;;;;;;10280131;28;20076;-60
2022/06/09 21:36:50;;;;;;;4.18;3.78;;;;;;;;;;10280218;28;20053;-62
2022/06/09 21:41:50;;;;;;;6.88;4.03;;;;;;;;;;10279778;28;20056;-62
2022/06/09 21:46:48;;;;;;;3.63;3.30;;;;;;;;;;10278979;28;20540;-62
2022/06/09 21:51:46;;;;;;;4.75;3.45;;;;;;;;;;10279841;28;20057;-61
2022/06/09 21:56:45;;;;;;;6.05;3.72;;;;;;;;;;10279410;28;20048;-61
2022/06/09 22:01:44;;;;;;;6.88;3.78;;;;;;;;;;10278978;28;20517;-61
2022/06/09 22:06:44;;;;;;;4.47;4.07;;;;;;;;;;10278755;28;20075;-61
2022/06/09 22:11:43;;;;;;;5.53;3.95;;;;;;;;;;10278780;28;20044;-61
2022/06/09 22:16:41;;;;;;;4.38;3.05;;;;;;;;;;10278278;28;20048;-61
2022/06/09 22:21:41;;;;;;;4.22;3.42;;;;;;;;;;10277836;28;20049;-61
2022/06/09 22:26:40;;;;;;;5.72;3.88;;;;;;;;;;10278267;28;20076;-61
2022/06/09 22:31:39;;;;;;;4.43;3.40;;;;;;;;;;10290966;28;20083;-61
2022/06/09 22:36:37;;;;;;;4.07;3.38;;;;;;;;;;10277226;28;20554;-61
2022/06/09 22:41:37;;;;;;;4.97;3.80;;;;;;;;;;10277334;28;20052;-61
2022/06/09 22:46:35;;;;;;;6.40;3.78;;;;;;;;;;10277190;28;20076;-61
2022/06/09 22:51:34;;;;;;;4.65;4.13;;;;;;;;;;10277598;28;20060;-61
2022/06/09 22:56:33;;;;;;;4.20;3.75;;;;;;;;;;10277043;28;20083;-61
2022/06/09 23:01:32;;;;;;;6.32;3.78;;;;;;;;;;10277179;28;20114;-61
2022/06/09 23:06:31;;;;;;;8.20;3.83;;;;;;;;;;10276571;28;20533;-61
2022/06/09 23:11:29;;;;;;;3.88;3.38;;;;;;;;;;10276813;28;20057;-63
2022/06/09 23:16:30;;;;;;;5.07;3.70;;;;;;;;;;10276662;28;20087;-61
2022/06/09 23:21:30;;;;;;;5.70;3.85;;;;;;;;;;10275581;28;20072;-61
2022/06/09 23:26:28;;;;;;;4.75;3.70;;;;;;;;;;10275779;28;20080;-61
2022/06/09 23:31:27;;;;;;;5.35;3.97;;;;;;;;;;10275325;28;20726;-61
2022/06/09 23:36:28;;;;;;;4.28;3.53;;;;;;;;;;10275574;28;20052;-61
2022/06/09 23:41:28;;;;;;;5.72;4.13;;;;;;;;;;10275598;28;20049;-61
2022/06/09 23:46:26;;;;;;;5.00;4.35;;;;;;;;;;10274627;28;20080;-61
2022/06/09 23:51:25;;;;;;;6.32;5.05;;;;;;;;;;10275536;28;20041;-61
2022/06/09 23:56:25;;;;;;;4.50;4.07;;;;;;;;;;10275270;28;20486;-61
